Time;durP1;ratioP1;P1;durP2;ratioP2;P2;SDS_P1;SDS_P2;PMS_P1;PMS_P2;Temp;Humidity;BMP_temperature;BMP_pressure;BME280_temperature;BME280_humidity;BME280_pressure;Samples;Min_cycle;Max_cycle;Signal;HPM_P1;HPM_P2
2022/07/13 00:02:57;;;;;;;2.2;5.1;;;;;;;15.7;100;98740;;;;
2022/07/13 00:13:57;;;;;;;2.1;4.3;;;;;;;15.6;100;98740;;;;
2022/07/13 00:24:57;;;;;;;2.1;4.3;;;;;;;15.5;100;98740;;;;
2022/07/13 00:34:57;;;;;;;2.1;4.3;;;;;;;15.3;100;98740;;;;
2022/07/13 00:45:57;;;;;;;2.2;4.7;;;;;;;15.1;100;98740;;;;
2022/07/13 00:56:57;;;;;;;2.2;4.7;;;;;;;14.9;100;98750;;;;
2022/07/13 01:07:57;;;;;;;2.3;4.9;;;;;;;14.6;100;98740;;;;
2022/07/13 01:17:57;;;;;;;2.3;4.9;;;;;;;14.4;100;98720;;;;
2022/07/13 01:28:57;;;;;;;2.3;4.9;;;;;;;14.1;100;98730;;;;
2022/07/13 01:39:57;;;;;;;1.9;4.9;;;;;;;13.9;100;98720;;;;
2022/07/13 01:49:57;;;;;;;1.9;4.9;;;;;;;13.8;100;98730;;;;
2022/07/13 02:00:58;;;;;;;1.9;4.9;;;;;;;13.7;100;98730;;;;
2022/07/13 02:11:57;;;;;;;2.3;7.8;;;;;;;13.4;100;98730;;;;
2022/07/13 02:21:57;;;;;;;2.3;7.8;;;;;;;13.3;100;98720;;;;
2022/07/13 02:32:57;;;;;;;2.3;7.8;;;;;;;13.3;100;98720;;;;
2022/07/13 02:42:57;;;;;;;3.2;7.6;;;;;;;13.2;100;98720;;;;
2022/07/13 02:52:57;;;;;;;3.2;7.6;;;;;;;13.2;100;98730;;;;
2022/07/13 03:13:15;;;;;;;3.3;7.2;;;;;;;13.2;100;98740;;;;
2022/07/13 03:23:14;;;;;;;3.3;7.2;;;;;;;13.3;100;98760;;;;
2022/07/13 03:33:14;;;;;;;3.3;7.2;;;;;;;13.5;100;98760;;;;
2022/07/13 03:43:14;;;;;;;2.4;5.9;;;;;;;13.6;100;98760;;;;
2022/07/13 03:53:15;;;;;;;2.4;5.9;;;;;;;13.7;100;98750;;;;
2022/07/13 04:04:14;;;;;;;2.4;5.9;;;;;;;13.9;100;98760;;;;
2022/07/13 04:15:14;;;;;;;2.5;5.2;;;;;;;14.1;100;98750;;;;
2022/07/13 04:25:14;;;;;;;2.5;5.2;;;;;;;14.4;100;98750;;;;
2022/07/13 04:36:14;;;;;;;2.6;5.2;;;;;;;14.7;100;98760;;;;
2022/07/13 04:47:15;;;;;;;2.6;5.2;;;;;;;15.2;100;98770;;;;
2022/07/13 04:58:14;;;;;;;2.6;5.2;;;;;;;15.7;100;98780;;;;
2022/07/13 05:09:14;;;;;;;2.1;4.4;;;;;;;16;100;98770;;;;
2022/07/13 05:19:15;;;;;;;2.1;4.4;;;;;;;16.4;100;98770;;;;
2022/07/13 05:30:14;;;;;;;2.1;4.4;;;;;;;16.6;100;98770;;;;
2022/07/13 05:40:14;;;;;;;2.4;7.2;;;;;;;17;100;98780;;;;
2022/07/13 05:50:14;;;;;;;2.4;7.2;;;;;;;17;100;98770;;;;
2022/07/13 06:00:14;;;;;;;2.4;7.2;;;;;;;17.5;100;98780;;;;
2022/07/13 06:10:14;;;;;;;2;5.4;;;;;;;17.6;100;98780;;;;
2022/07/13 06:21:14;;;;;;;2;5.4;;;;;;;17.9;100;98770;;;;
2022/07/13 06:32:14;;;;;;;2;5.4;;;;;;;18.2;100;98780;;;;
2022/07/13 06:42:14;;;;;;;2.3;6.4;;;;;;;18.3;100;98780;;;;
2022/07/13 06:52:14;;;;;;;2.3;6.4;;;;;;;18.6;100;98780;;;;
2022/07/13 07:02:14;;;;;;;2.3;6.4;;;;;;;18.9;100;98770;;;;
2022/07/13 07:13:14;;;;;;;1.8;5.1;;;;;;;19;100;98760;;;;
2022/07/13 07:24:14;;;;;;;1.8;5.1;;;;;;;19.1;100;98760;;;;
2022/07/13 07:34:14;;;;;;;1.8;5.1;;;;;;;19.6;100;98770;;;;
2022/07/13 07:45:14;;;;;;;2.1;4.4;;;;;;;19.9;100;98770;;;;
2022/07/13 07:56:14;;;;;;;2.1;4.4;;;;;;;20.6;100;98770;;;;
2022/07/13 08:07:14;;;;;;;2;4.7;;;;;;;20.8;100;98770;;;;
2022/07/13 08:18:14;;;;;;;2;4.7;;;;;;;21;100;98790;;;;
2022/07/13 08:28:14;;;;;;;2;4.7;;;;;;;21.2;100;98770;;;;
2022/07/13 08:39:14;;;;;;;1.3;3.5;;;;;;;21.4;100;98780;;;;
2022/07/13 08:50:15;;;;;;;1.3;3.5;;;;;;;21.6;100;98770;;;;
2022/07/13 09:01:14;;;;;;;1.3;3.5;;;;;;;21.8;100;98760;;;;
2022/07/13 09:11:14;;;;;;;1.4;3.9;;;;;;;22;100;98760;;;;
2022/07/13 09:22:14;;;;;;;1.4;3.9;;;;;;;22.3;100;98760;;;;
2022/07/13 09:33:14;;;;;;;1.4;3.9;;;;;;;22.4;100;98760;;;;
2022/07/13 09:54:14;;;;;;;1.5;5;;;;;;;23.4;100;98770;;;;
2022/07/13 10:05:14;;;;;;;1.3;3.4;;;;;;;23.9;100;98750;;;;
2022/07/13 10:15:14;;;;;;;1.3;3.4;;;;;;;24.2;100;98760;;;;
2022/07/13 10:26:14;;;;;;;1.3;3.4;;;;;;;24.1;99.4;98760;;;;
2022/07/13 10:37:14;;;;;;;1.5;3.6;;;;;;;24;98.5;98750;;;;
2022/07/13 10:48:14;;;;;;;1.5;3.6;;;;;;;24.3;98.4;98750;;;;
2022/07/13 10:58:15;;;;;;;1.5;3.6;;;;;;;24.8;94.8;98770;;;;
2022/07/13 11:09:14;;;;;;;1.2;4.8;;;;;;;24.2;96.3;98760;;;;
2022/07/13 11:20:14;;;;;;;1.2;4.8;;;;;;;25.1;97.5;98760;;;;
2022/07/13 11:30:14;;;;;;;1.2;4.8;;;;;;;25;89.9;98770;;;;
2022/07/13 11:41:14;;;;;;;1.1;3.3;;;;;;;25.6;86.4;98750;;;;
2022/07/13 11:52:15;;;;;;;1.1;3.3;;;;;;;25.3;86.5;98740;;;;
2022/07/13 12:02:14;;;;;;;1.1;3.3;;;;;;;26;87.2;98730;;;;
2022/07/13 12:13:14;;;;;;;1.3;2.9;;;;;;;26.3;82.1;98740;;;;
2022/07/13 12:24:14;;;;;;;1.3;2.9;;;;;;;26;81.4;98740;;;;
2022/07/13 12:34:14;;;;;;;1.3;2.9;;;;;;;26;72.8;98730;;;;
2022/07/13 12:44:16;;;;;;;1.4;3.6;;;;;;;25.5;73.7;98720;;;;
2022/07/13 12:55:15;;;;;;;1.4;3.6;;;;;;;26;69.5;98710;;;;
2022/07/13 13:05:14;;;;;;;0.8;1.6;;;;;;;26.8;68.6;98710;;;;
2022/07/13 13:15:15;;;;;;;0.8;1.6;;;;;;;27.1;67.6;98700;;;;
2022/07/13 13:26:14;;;;;;;0.8;1.6;;;;;;;27.6;66.6;98710;;;;
2022/07/13 13:36:14;;;;;;;1.2;3.3;;;;;;;27.4;67.5;98710;;;;
2022/07/13 13:46:14;;;;;;;1.2;3.3;;;;;;;27.9;69.9;98710;;;;
2022/07/13 13:57:14;;;;;;;1.2;3.3;;;;;;;27.9;67.3;98710;;;;
2022/07/13 14:08:14;;;;;;;1;3;;;;;;;28.5;67.9;98690;;;;
2022/07/13 14:18:15;;;;;;;1;3;;;;;;;28;68.3;98690;;;;
2022/07/13 14:28:15;;;;;;;1;3;;;;;;;27.8;68.9;98680;;;;
2022/07/13 14:39:14;;;;;;;1.1;4.2;;;;;;;28;70;98680;;;;
2022/07/13 14:50:14;;;;;;;1.1;4.2;;;;;;;27.3;71.4;98680;;;;
2022/07/13 15:01:15;;;;;;;1.1;4.2;;;;;;;28.1;68.5;98680;;;;
2022/07/13 15:12:14;;;;;;;0.8;3.2;;;;;;;27.4;69.3;98670;;;;
2022/07/13 15:23:14;;;;;;;0.8;3.2;;;;;;;29.5;62.3;98670;;;;
2022/07/13 15:33:15;;;;;;;0.8;3.2;;;;;;;28.8;64.5;98670;;;;
2022/07/13 15:44:15;;;;;;;0.9;3.7;;;;;;;30.5;60.3;98670;;;;
2022/07/13 15:54:14;;;;;;;0.9;3.7;;;;;;;29.2;62.6;98650;;;;
2022/07/13 16:04:14;;;;;;;0.9;3.7;;;;;;;28.4;63.1;98640;;;;
2022/07/13 16:14:15;;;;;;;0.9;3.7;;;;;;;28.3;64.5;98630;;;;
2022/07/13 16:25:14;;;;;;;0.9;3.7;;;;;;;29.3;62.8;98630;;;;
2022/07/13 16:35:14;;;;;;;0.9;3.7;;;;;;;28.1;64.8;98630;;;;
2022/07/13 16:45:15;;;;;;;1.1;2.7;;;;;;;27.7;66.4;98630;;;;
2022/07/13 16:56:14;;;;;;;1.1;2.7;;;;;;;27.5;66.5;98620;;;;
2022/07/13 17:07:15;;;;;;;1.1;2.6;;;;;;;27.1;68;98610;;;;
2022/07/13 17:18:14;;;;;;;1.1;2.6;;;;;;;27.1;73.3;98610;;;;
2022/07/13 17:28:14;;;;;;;1.1;2.6;;;;;;;27.1;75.7;98610;;;;
2022/07/13 17:39:15;;;;;;;1.3;2.9;;;;;;;26.4;78.5;98620;;;;
2022/07/13 17:49:15;;;;;;;1.3;2.9;;;;;;;27.3;75.5;98620;;;;
2022/07/13 18:00:14;;;;;;;1.3;2.9;;;;;;;29.5;67.7;98620;;;;
2022/07/13 18:11:15;;;;;;;1.2;2.9;;;;;;;28.6;67.9;98620;;;;
2022/07/13 18:22:14;;;;;;;1.2;2.9;;;;;;;26.6;74.5;98620;;;;
2022/07/13 18:33:15;;;;;;;1.2;2.9;;;;;;;25.1;80.2;98630;;;;
2022/07/13 18:43:14;;;;;;;2.6;4.4;;;;;;;23.9;87.7;98620;;;;
2022/07/13 18:53:14;;;;;;;2.6;4.4;;;;;;;22.9;91.1;98620;;;;
2022/07/13 19:03:15;;;;;;;2.6;4.4;;;;;;;22.1;96.4;98620;;;;
2022/07/13 19:13:15;;;;;;;1.6;4;;;;;;;21.5;97.9;98630;;;;
2022/07/13 19:24:14;;;;;;;1.6;4;;;;;;;21.1;99.8;98630;;;;
2022/07/13 19:35:15;;;;;;;1.6;4;;;;;;;20.8;97.4;98630;;;;
2022/07/13 19:46:15;;;;;;;1.7;4;;;;;;;20.6;97.4;98630;;;;
2022/07/13 19:56:15;;;;;;;1.7;4;;;;;;;20.6;98.3;98640;;;;
2022/07/13 20:07:14;;;;;;;1.7;3.7;;;;;;;20.6;97.9;98640;;;;
2022/07/13 20:17:14;;;;;;;1.7;3.7;;;;;;;20.6;96.8;98640;;;;
2022/07/13 20:27:15;;;;;;;1.7;3.7;;;;;;;20.5;100;98640;;;;
2022/07/13 20:38:15;;;;;;;1.8;3.8;;;;;;;20.5;99.8;98640;;;;
2022/07/13 20:49:15;;;;;;;1.8;3.8;;;;;;;20.7;98.6;98640;;;;
2022/07/13 20:59:15;;;;;;;1.8;3.8;;;;;;;20.7;97;98640;;;;
2022/07/13 21:10:15;;;;;;;1.9;6.5;;;;;;;20.8;97.5;98650;;;;
2022/07/13 21:20:15;;;;;;;1.9;6.5;;;;;;;20.8;97.8;98630;;;;
2022/07/13 21:30:15;;;;;;;1.9;6.5;;;;;;;20.8;96.8;98640;;;;
2022/07/13 21:40:15;;;;;;;1.6;3.9;;;;;;;20.8;97.1;98640;;;;
2022/07/13 21:51:15;;;;;;;1.6;3.9;;;;;;;20.8;96.4;98630;;;;
2022/07/13 22:01:15;;;;;;;1.6;3.9;;;;;;;20.8;95.4;98630;;;;
2022/07/13 22:11:15;;;;;;;1.5;3.4;;;;;;;20.8;95.9;98630;;;;
2022/07/13 22:22:18;;;;;;;1.5;3.4;;;;;;;20.9;94.4;98630;;;;
2022/07/13 22:32:15;;;;;;;1.5;3.4;;;;;;;20.9;94.1;98620;;;;
2022/07/13 22:42:15;;;;;;;1.7;4.3;;;;;;;20.9;93.5;98610;;;;
2022/07/13 22:52:16;;;;;;;1.7;4.3;;;;;;;20.9;93;98610;;;;
2022/07/13 23:03:15;;;;;;;1.7;4.3;;;;;;;20.9;93.6;98610;;;;
2022/07/13 23:13:15;;;;;;;1.7;4.1;;;;;;;20.7;97.1;98600;;;;
2022/07/13 23:23:15;;;;;;;1.7;4.1;;;;;;;20.7;95.6;98590;;;;
2022/07/13 23:34:15;;;;;;;1.7;4.1;;;;;;;20.6;96.5;98580;;;;
2022/07/13 23:45:15;;;;;;;1.5;4;;;;;;;20.4;96.9;98590;;;;
2022/07/13 23:55:15;;;;;;;1.5;4;;;;;;;20.3;97.2;98590;;;;
